sensor_id;sensor_type;location;lat;lon;timestamp;pressure;altitude;pressure_sealevel;temperature;humidity
68145;BME280;55400;51.824;-0.196;2023-11-19T00:01:57;99747.63;;;12.14;81.86
68145;BME280;55400;51.824;-0.196;2023-11-19T00:05:57;99750.56;;;12.12;82.10
68145;BME280;55400;51.824;-0.196;2023-11-19T00:09:57;99752.71;;;12.11;82.23
68145;BME280;55400;51.824;-0.196;2023-11-19T00:13:57;99747.91;;;12.06;82.64
68145;BME280;55400;51.824;-0.196;2023-11-19T00:17:57;99733.04000000001;;;12.13;82.51
68145;BME280;55400;51.824;-0.196;2023-11-19T00:21:57;99733.04000000001;;;12.09;82.28
68145;BME280;55400;51.824;-0.196;2023-11-19T00:25:57;99741.78;;;12.02;81.92
68145;BME280;55400;51.824;-0.196;2023-11-19T00:29:57;99744.76;;;12.05;81.73
68145;BME280;55400;51.824;-0.196;2023-11-19T00:33:57;99744.19;;;12.06;81.79
68145;BME280;55400;51.824;-0.196;2023-11-19T00:37:57;99747.89;;;11.89;81.64
68145;BME280;55400;51.824;-0.196;2023-11-19T00:41:57;99754.75;;;11.91;82.27
68145;BME280;55400;51.824;-0.196;2023-11-19T00:49:57;99753.99;;;11.89;81.76
68145;BME280;55400;51.824;-0.196;2023-11-19T00:53:57;99744.14;;;11.98;82.05
68145;BME280;55400;51.824;-0.196;2023-11-19T00:57:57;99748.67;;;11.86;80.38
68145;BME280;55400;51.824;-0.196;2023-11-19T01:01:57;99738.76000000001;;;11.82;81.11
68145;BME280;55400;51.824;-0.196;2023-11-19T01:05:57;99747.25;;;11.83;81.59
68145;BME280;55400;51.824;-0.196;2023-11-19T01:09:57;99749.7;;;11.92;81.12
68145;BME280;55400;51.824;-0.196;2023-11-19T01:13:57;99741.71;;;11.75;79.89
68145;BME280;55400;51.824;-0.196;2023-11-19T01:17:57;99737.78;;;11.77;80.28
68145;BME280;55400;51.824;-0.196;2023-11-19T01:21:57;99740.61;;;11.79;80.28
68145;BME280;55400;51.824;-0.196;2023-11-19T01:25:57;99736.64;;;11.67;79.72
68145;BME280;55400;51.824;-0.196;2023-11-19T01:29:57;99733.2;;;11.64;79.97
68145;BME280;55400;51.824;-0.196;2023-11-19T01:33:57;99729.64;;;11.59;79.85
68145;BME280;55400;51.824;-0.196;2023-11-19T01:37:57;99725.40000000001;;;11.57;80.09
68145;BME280;55400;51.824;-0.196;2023-11-19T01:41:57;99728.7;;;11.60;80.43
68145;BME280;55400;51.824;-0.196;2023-11-19T01:45:57;99729.40999999999;;;11.55;79.96
68145;BME280;55400;51.824;-0.196;2023-11-19T01:49:57;99725.37;;;11.57;80.21
68145;BME280;55400;51.824;-0.196;2023-11-19T01:57:59;99724.14;;;11.58;79.93
68145;BME280;55400;51.824;-0.196;2023-11-19T02:01:57;99724.14;;;11.47;79.49
68145;BME280;55400;51.824;-0.196;2023-11-19T02:05:57;99716.86;;;11.52;79.87
68145;BME280;55400;51.824;-0.196;2023-11-19T02:09:57;99716.86;;;11.42;79.14
68145;BME280;55400;51.824;-0.196;2023-11-19T02:13:57;99726.47;;;11.33;79.37
68145;BME280;55400;51.824;-0.196;2023-11-19T02:17:58;99707.32;;;11.32;79.72
68145;BME280;55400;51.824;-0.196;2023-11-19T02:21:58;99723.67;;;11.21;79.56
68145;BME280;55400;51.824;-0.196;2023-11-19T02:26:02;99718.4;;;11.25;79.54
68145;BME280;55400;51.824;-0.196;2023-11-19T02:29:57;99721.54000000001;;;11.33;79.27
68145;BME280;55400;51.824;-0.196;2023-11-19T02:33:59;99721.54000000001;;;11.23;79.27
68145;BME280;55400;51.824;-0.196;2023-11-19T02:37:58;99722.29;;;11.18;79.47
68145;BME280;55400;51.824;-0.196;2023-11-19T02:41:57;99718.44;;;11.08;79.49
68145;BME280;55400;51.824;-0.196;2023-11-19T02:45:57;99710.6;;;11.13;79.69
68145;BME280;55400;51.824;-0.196;2023-11-19T02:49:58;99714.26;;;11.11;79.46
68145;BME280;55400;51.824;-0.196;2023-11-19T02:53:58;99717.08;;;11.04;79.47
68145;BME280;55400;51.824;-0.196;2023-11-19T02:57:57;99713.55;;;11.11;79.59
68145;BME280;55400;51.824;-0.196;2023-11-19T03:01:57;99716.38;;;11.03;79.40
68145;BME280;55400;51.824;-0.196;2023-11-19T03:05:57;99705.44;;;11.08;79.34
68145;BME280;55400;51.824;-0.196;2023-11-19T03:09:58;99698.81;;;10.99;79.18
68145;BME280;55400;51.824;-0.196;2023-11-19T03:21:58;99674.58;;;10.96;79.28
68145;BME280;55400;51.824;-0.196;2023-11-19T03:25:57;99690.91;;;11.02;78.84
68145;BME280;55400;51.824;-0.196;2023-11-19T03:29:58;99690.91;;;11.04;78.84
68145;BME280;55400;51.824;-0.196;2023-11-19T03:33:57;99710.41;;;11.00;78.94
68145;BME280;55400;51.824;-0.196;2023-11-19T03:43:01;99693.11;;;11.10;79.05
68145;BME280;55400;51.824;-0.196;2023-11-19T03:45:58;99693.11;;;11.14;79.05
68145;BME280;55400;51.824;-0.196;2023-11-19T03:49:58;99680.08;;;11.12;79.03
68145;BME280;55400;51.824;-0.196;2023-11-19T03:53:58;99680.08;;;11.17;78.72
68145;BME280;55400;51.824;-0.196;2023-11-19T03:57:58;99686.22;;;11.16;78.35
68145;BME280;55400;51.824;-0.196;2023-11-19T04:01:58;99687.45;;;11.19;78.14
68145;BME280;55400;51.824;-0.196;2023-11-19T04:05:58;99671.99;;;11.15;77.86
68145;BME280;55400;51.824;-0.196;2023-11-19T04:09:58;99671.47;;;11.02;77.78
68145;BME280;55400;51.824;-0.196;2023-11-19T04:13:58;99685.18000000001;;;11.06;78.39
68145;BME280;55400;51.824;-0.196;2023-11-19T04:17:58;99687.56;;;11.02;78.27
68145;BME280;55400;51.824;-0.196;2023-11-19T04:21:58;99695.89;;;10.89;78.11
68145;BME280;55400;51.824;-0.196;2023-11-19T04:25:58;99685.04000000001;;;10.99;78.66
68145;BME280;55400;51.824;-0.196;2023-11-19T04:29:58;99679.86;;;10.97;78.30
68145;BME280;55400;51.824;-0.196;2023-11-19T04:33:58;99679.86;;;10.96;78.72
68145;BME280;55400;51.824;-0.196;2023-11-19T04:37:58;99678.16;;;11.03;78.77
68145;BME280;55400;51.824;-0.196;2023-11-19T04:41:58;99679.88;;;10.99;78.15
68145;BME280;55400;51.824;-0.196;2023-11-19T04:47:57;99692.42;;;10.98;78.58
68145;BME280;55400;51.824;-0.196;2023-11-19T04:49:58;99692.42;;;11.09;78.58
68145;BME280;55400;51.824;-0.196;2023-11-19T04:53:58;99689.09;;;11.01;78.08
68145;BME280;55400;51.824;-0.196;2023-11-19T04:57:58;99690.56;;;11.10;78.30
68145;BME280;55400;51.824;-0.196;2023-11-19T05:01:58;99677.95;;;11.06;77.81
68145;BME280;55400;51.824;-0.196;2023-11-19T05:05:58;99672.6;;;11.01;78.03
68145;BME280;55400;51.824;-0.196;2023-11-19T05:09:58;99674.91;;;11.04;78.65
68145;BME280;55400;51.824;-0.196;2023-11-19T05:13:58;99673.05;;;11.11;78.59
68145;BME280;55400;51.824;-0.196;2023-11-19T05:17:58;99673.99;;;11.08;78.75
68145;BME280;55400;51.824;-0.196;2023-11-19T05:21:58;99669.14;;;10.99;79.29
68145;BME280;55400;51.824;-0.196;2023-11-19T05:25:58;99666.72;;;11.04;79.01
68145;BME280;55400;51.824;-0.196;2023-11-19T05:29:58;99675.28;;;11.06;79.29
68145;BME280;55400;51.824;-0.196;2023-11-19T05:33:58;99661.87999999999;;;11.08;78.87
68145;BME280;55400;51.824;-0.196;2023-11-19T05:37:58;99662.58;;;11.11;79.09
68145;BME280;55400;51.824;-0.196;2023-11-19T05:41:58;99664.01;;;11.08;79.09
68145;BME280;55400;51.824;-0.196;2023-11-19T05:45:58;99664.45;;;11.14;79.03
68145;BME280;55400;51.824;-0.196;2023-11-19T05:49:58;99679.45999999999;;;11.19;79.03
68145;BME280;55400;51.824;-0.196;2023-11-19T05:53:58;99680.05;;;11.15;78.56
68145;BME280;55400;51.824;-0.196;2023-11-19T05:57:58;99680.05;;;11.16;78.56
68145;BME280;55400;51.824;-0.196;2023-11-19T06:01:58;99690.99;;;11.10;78.52
68145;BME280;55400;51.824;-0.196;2023-11-19T06:05:58;99691.09;;;11.15;78.26
68145;BME280;55400;51.824;-0.196;2023-11-19T06:09:58;99691.09;;;11.18;78.00
68145;BME280;55400;51.824;-0.196;2023-11-19T06:13:58;99692.88;;;11.24;77.45
68145;BME280;55400;51.824;-0.196;2023-11-19T06:17:58;99695.2;;;11.09;77.57
68145;BME280;55400;51.824;-0.196;2023-11-19T06:21:58;99695.2;;;11.12;77.57
68145;BME280;55400;51.824;-0.196;2023-11-19T06:25:58;99699.28;;;11.10;76.69
68145;BME280;55400;51.824;-0.196;2023-11-19T06:29:58;99691.88;;;11.18;76.66
68145;BME280;55400;51.824;-0.196;2023-11-19T06:33:58;99691.88;;;11.10;76.16
68145;BME280;55400;51.824;-0.196;2023-11-19T06:37:58;99689.15;;;11.17;76.93
68145;BME280;55400;51.824;-0.196;2023-11-19T06:41:58;99688.15;;;11.14;76.88
68145;BME280;55400;51.824;-0.196;2023-11-19T06:45:58;99682.28;;;11.08;77.51
68145;BME280;55400;51.824;-0.196;2023-11-19T06:49:58;99682.28;;;11.02;77.51
68145;BME280;55400;51.824;-0.196;2023-11-19T06:53:58;99682.0;;;11.01;78.05
68145;BME280;55400;51.824;-0.196;2023-11-19T06:57:59;99684.62;;;10.94;78.31
68145;BME280;55400;51.824;-0.196;2023-11-19T07:01:58;99686.49;;;10.91;78.59
68145;BME280;55400;51.824;-0.196;2023-11-19T07:05:58;99690.97;;;10.89;78.57
68145;BME280;55400;51.824;-0.196;2023-11-19T07:09:58;99683.45000000001;;;10.97;78.49
68145;BME280;55400;51.824;-0.196;2023-11-19T07:13:58;99683.45000000001;;;10.95;78.49
68145;BME280;55400;51.824;-0.196;2023-11-19T07:17:58;99692.52;;;10.91;78.42
68145;BME280;55400;51.824;-0.196;2023-11-19T07:21:58;99684.61;;;10.82;78.20
68145;BME280;55400;51.824;-0.196;2023-11-19T07:25:58;99684.61;;;10.85;78.18
68145;BME280;55400;51.824;-0.196;2023-11-19T07:29:58;99683.44;;;10.83;77.58
68145;BME280;55400;51.824;-0.196;2023-11-19T07:33:58;99688.13;;;10.73;77.35
68145;BME280;55400;51.824;-0.196;2023-11-19T07:37:58;99690.77;;;10.74;76.89
68145;BME280;55400;51.824;-0.196;2023-11-19T07:41:58;99690.77;;;10.68;76.89
68145;BME280;55400;51.824;-0.196;2023-11-19T07:45:58;99685.05;;;10.63;76.88
68145;BME280;55400;51.824;-0.196;2023-11-19T07:49:58;99678.75;;;10.61;77.22
68145;BME280;55400;51.824;-0.196;2023-11-19T07:53:58;99681.84;;;10.60;77.03
68145;BME280;55400;51.824;-0.196;2023-11-19T08:01:58;99686.25;;;10.64;76.91
68145;BME280;55400;51.824;-0.196;2023-11-19T08:05:58;99696.77;;;10.66;76.39
68145;BME280;55400;51.824;-0.196;2023-11-19T08:09:58;99697.75;;;10.73;76.27
68145;BME280;55400;51.824;-0.196;2023-11-19T08:13:11;99693.02;;;10.73;75.57
68145;BME280;55400;51.824;-0.196;2023-11-19T08:13:58;99693.02;;;10.66;75.57
68145;BME280;55400;51.824;-0.196;2023-11-19T08:15:56;99700.73;;;10.67;75.81
68145;BME280;55400;51.824;-0.196;2023-11-19T08:17:13;99700.73;;;10.68;75.81
68145;BME280;55400;51.824;-0.196;2023-11-19T08:19:31;99713.23;;;10.68;75.87
68145;BME280;55400;51.824;-0.196;2023-11-19T08:21:13;99713.23;;;10.75;75.87
68145;BME280;55400;51.824;-0.196;2023-11-19T08:25:13;99733.63;;;10.73;75.75
68145;BME280;55400;51.824;-0.196;2023-11-19T08:33:13;99711.06;;;10.70;75.77
68145;BME280;55400;51.824;-0.196;2023-11-19T08:41:13;99719.76;;;10.75;76.06
68145;BME280;55400;51.824;-0.196;2023-11-19T08:45:13;99719.76;;;10.82;75.93
68145;BME280;55400;51.824;-0.196;2023-11-19T08:49:13;99718.39;;;10.96;75.90
68145;BME280;55400;51.824;-0.196;2023-11-19T08:53:13;99729.1;;;10.97;74.53
68145;BME280;55400;51.824;-0.196;2023-11-19T08:57:13;99727.42;;;10.95;74.82
68145;BME280;55400;51.824;-0.196;2023-11-19T09:01:13;99723.11;;;10.98;74.32
68145;BME280;55400;51.824;-0.196;2023-11-19T09:05:14;99725.29;;;11.01;74.74
68145;BME280;55400;51.824;-0.196;2023-11-19T09:09:13;99713.64;;;11.00;74.68
68145;BME280;55400;51.824;-0.196;2023-11-19T09:13:14;99717.67;;;11.05;74.75
68145;BME280;55400;51.824;-0.196;2023-11-19T09:17:13;99718.95;;;11.04;74.94
68145;BME280;55400;51.824;-0.196;2023-11-19T09:21:14;99720.47;;;11.02;74.46
68145;BME280;55400;51.824;-0.196;2023-11-19T09:25:13;99718.56;;;10.99;75.81
68145;BME280;55400;51.824;-0.196;2023-11-19T09:29:13;99732.69;;;10.92;77.21
68145;BME280;55400;51.824;-0.196;2023-11-19T09:33:13;99732.69;;;10.88;78.16
68145;BME280;55400;51.824;-0.196;2023-11-19T09:37:14;99712.84000000001;;;10.92;78.75
68145;BME280;55400;51.824;-0.196;2023-11-19T09:41:13;99708.51;;;10.91;79.42
68145;BME280;55400;51.824;-0.196;2023-11-19T09:45:14;99708.51;;;10.92;80.43
68145;BME280;55400;51.824;-0.196;2023-11-19T09:49:13;99704.16;;;10.90;80.72
68145;BME280;55400;51.824;-0.196;2023-11-19T09:53:14;99701.28;;;10.89;80.79
68145;BME280;55400;51.824;-0.196;2023-11-19T09:57:14;99692.46;;;10.99;80.75
68145;BME280;55400;51.824;-0.196;2023-11-19T10:01:14;99690.73;;;11.05;80.45
68145;BME280;55400;51.824;-0.196;2023-11-19T10:05:14;99684.91;;;11.10;80.11
68145;BME280;55400;51.824;-0.196;2023-11-19T10:09:14;99679.81;;;11.14;78.64
68145;BME280;55400;51.824;-0.196;2023-11-19T10:13:14;99690.16;;;11.20;78.64
68145;BME280;55400;51.824;-0.196;2023-11-19T10:17:14;99690.16;;;11.22;78.79
68145;BME280;55400;51.824;-0.196;2023-11-19T10:21:14;99683.52;;;11.28;78.62
68145;BME280;55400;51.824;-0.196;2023-11-19T10:23:52;99683.52;;;11.28;unavailable
68145;BME280;55400;51.824;-0.196;2023-11-19T10:25:21;99683.52;;;11.29;77.92
68145;BME280;55400;51.824;-0.196;2023-11-19T10:28:14;99677.26;;;11.29;78.44
68145;BME280;55400;51.824;-0.196;2023-11-19T10:29:14;99677.26;;;11.45;78.44
68145;BME280;55400;51.824;-0.196;2023-11-19T10:30:55;99683.76;;;11.46;unavailable
68145;BME280;55400;51.824;-0.196;2023-11-19T10:36:37;99679.72;;;11.47;76.53
68145;BME280;55400;51.824;-0.196;2023-11-19T10:40:38;99679.76999999999;;;11.57;76.22
68145;BME280;55400;51.824;-0.196;2023-11-19T10:44:37;99672.29999999999;;;11.67;76.03
68145;BME280;55400;51.824;-0.196;2023-11-19T10:48:38;99672.33;;;11.75;75.10
68145;BME280;55400;51.824;-0.196;2023-11-19T10:52:52;99673.14;;;11.72;75.47
68145;BME280;55400;51.824;-0.196;2023-11-19T10:56:37;99673.14;;;11.77;75.47
68145;BME280;55400;51.824;-0.196;2023-11-19T11:00:38;99683.08;;;11.85;74.75
68145;BME280;55400;51.824;-0.196;2023-11-19T11:04:39;99683.08;;;11.84;74.72
68145;BME280;55400;51.824;-0.196;2023-11-19T11:08:38;99665.44;;;11.88;74.58
68145;BME280;55400;51.824;-0.196;2023-11-19T11:12:37;99669.7;;;11.95;74.57
68145;BME280;55400;51.824;-0.196;2023-11-19T11:16:38;99662.51999999999;;;12.01;73.02
68145;BME280;55400;51.824;-0.196;2023-11-19T11:20:37;99662.51999999999;;;11.96;73.02
68145;BME280;55400;51.824;-0.196;2023-11-19T11:24:41;99666.63;;;11.97;73.92
68145;BME280;55400;51.824;-0.196;2023-11-19T11:28:39;99664.70000000001;;;12.06;73.36
68145;BME280;55400;51.824;-0.196;2023-11-19T11:35:50;99659.97;;;12.01;unavailable
68145;BME280;55400;51.824;-0.196;2023-11-19T11:40:38;99655.1;;;11.99;73.35
68145;BME280;55400;51.824;-0.196;2023-11-19T11:48:40;99635.65999999999;;;12.02;72.89
68145;BME280;55400;51.824;-0.196;2023-11-19T11:52:48;99635.56999999999;;;11.98;72.58
68145;BME280;55400;51.824;-0.196;2023-11-19T11:56:38;99635.56999999999;;;12.06;73.16
68145;BME280;55400;51.824;-0.196;2023-11-19T12:00:38;99641.81999999999;;;12.15;72.88
68145;BME280;55400;51.824;-0.196;2023-11-19T12:05:19;99620.28;;;12.11;72.59
68145;BME280;55400;51.824;-0.196;2023-11-19T12:08:38;99620.28;;;12.20;72.59
68145;BME280;55400;51.824;-0.196;2023-11-19T12:12:38;99614.43000000001;;;12.26;71.94
68145;BME280;55400;51.824;-0.196;2023-11-19T12:20:38;99621.42;;;12.34;71.94
68145;BME280;55400;51.824;-0.196;2023-11-19T12:26:20;99617.3;;;12.38;71.55
68145;BME280;55400;51.824;-0.196;2023-11-19T12:28:38;99609.42;;;12.39;71.61
68145;BME280;55400;51.824;-0.196;2023-11-19T12:34:50;99604.13;;;12.47;71.17
68145;BME280;55400;51.824;-0.196;2023-11-19T12:42:10;99607.56999999999;;;12.37;72.33
68145;BME280;55400;51.824;-0.196;2023-11-19T12:44:38;99607.56999999999;;;12.41;72.33
68145;BME280;55400;51.824;-0.196;2023-11-19T12:48:38;99594.28;;;12.44;72.64
68145;BME280;55400;51.824;-0.196;2023-11-19T12:52:38;99596.75;;;12.37;72.78
68145;BME280;55400;51.824;-0.196;2023-11-19T12:56:38;99586.1;;;12.41;73.29
68145;BME280;55400;51.824;-0.196;2023-11-19T13:00:38;99589.15;;;12.37;73.18
68145;BME280;55400;51.824;-0.196;2023-11-19T13:04:38;99592.7;;;12.33;73.59
68145;BME280;55400;51.824;-0.196;2023-11-19T13:08:38;99575.06;;;12.36;74.17
68145;BME280;55400;51.824;-0.196;2023-11-19T13:12:38;99575.06;;;12.29;73.99
68145;BME280;55400;51.824;-0.196;2023-11-19T13:16:38;99583.5;;;12.23;74.35
68145;BME280;55400;51.824;-0.196;2023-11-19T13:20:38;99573.1;;;12.30;74.89
68145;BME280;55400;51.824;-0.196;2023-11-19T13:24:38;99574.21;;;12.36;74.97
68145;BME280;55400;51.824;-0.196;2023-11-19T13:28:38;99555.25;;;12.29;74.71
68145;BME280;55400;51.824;-0.196;2023-11-19T13:32:38;99555.25;;;12.27;74.71
68145;BME280;55400;51.824;-0.196;2023-11-19T13:36:38;99549.98000000001;;;12.37;75.21
68145;BME280;55400;51.824;-0.196;2023-11-19T13:40:38;99556.84999999999;;;12.32;74.95
68145;BME280;55400;51.824;-0.196;2023-11-19T13:44:38;99556.84999999999;;;12.37;75.31
68145;BME280;55400;51.824;-0.196;2023-11-19T13:48:38;99558.59;;;12.31;75.13
68145;BME280;55400;51.824;-0.196;2023-11-19T13:52:38;99560.02;;;12.30;75.55
68145;BME280;55400;51.824;-0.196;2023-11-19T13:56:38;99546.04000000001;;;12.37;76.08
68145;BME280;55400;51.824;-0.196;2023-11-19T14:00:38;99551.76;;;12.45;76.07
68145;BME280;55400;51.824;-0.196;2023-11-19T14:04:38;99551.76;;;12.36;76.07
68145;BME280;55400;51.824;-0.196;2023-11-19T14:08:38;99553.95999999999;;;12.33;77.21
68145;BME280;55400;51.824;-0.196;2023-11-19T14:12:38;99551.58;;;12.26;77.80
68145;BME280;55400;51.824;-0.196;2023-11-19T14:16:38;99551.58;;;12.27;78.67
68145;BME280;55400;51.824;-0.196;2023-11-19T14:20:38;99543.1;;;12.25;79.02
68145;BME280;55400;51.824;-0.196;2023-11-19T14:24:38;99543.1;;;12.26;79.20
68145;BME280;55400;51.824;-0.196;2023-11-19T14:28:38;99556.29000000001;;;12.24;79.37
68145;BME280;55400;51.824;-0.196;2023-11-19T14:32:39;99541.76999999999;;;12.32;79.24
68145;BME280;55400;51.824;-0.196;2023-11-19T14:36:07;99557.17;;;12.32;78.97
68145;BME280;55400;51.824;-0.196;2023-11-19T14:36:38;99545.08;;;12.36;78.97
68145;BME280;55400;51.824;-0.196;2023-11-19T14:40:38;99545.08;;;12.34;78.92
68145;BME280;55400;51.824;-0.196;2023-11-19T14:44:38;99541.45999999999;;;12.40;78.93
68145;BME280;55400;51.824;-0.196;2023-11-19T14:48:38;99558.34;;;12.42;78.59
68145;BME280;55400;51.824;-0.196;2023-11-19T14:53:07;99553.3;;;12.50;77.90
68145;BME280;55400;51.824;-0.196;2023-11-19T14:56:38;99553.3;;;12.49;77.90
68145;BME280;55400;51.824;-0.196;2023-11-19T15:00:38;99546.31000000001;;;12.60;77.57
68145;BME280;55400;51.824;-0.196;2023-11-19T15:04:38;99555.88;;;12.55;77.48
68145;BME280;55400;51.824;-0.196;2023-11-19T15:08:38;99555.88;;;12.57;77.48
68145;BME280;55400;51.824;-0.196;2023-11-19T15:12:44;99568.52;;;12.51;77.44
68145;BME280;55400;51.824;-0.196;2023-11-19T15:16:38;99568.52;;;12.55;77.44
68145;BME280;55400;51.824;-0.196;2023-11-19T15:20:38;99574.71;;;12.66;76.78
68145;BME280;55400;51.824;-0.196;2023-11-19T15:24:38;99570.15;;;12.67;76.04
68145;BME280;55400;51.824;-0.196;2023-11-19T15:28:38;99581.44;;;12.70;76.23
68145;BME280;55400;51.824;-0.196;2023-11-19T15:32:38;99585.47;;;12.67;76.67
68145;BME280;55400;51.824;-0.196;2023-11-19T15:36:38;99583.24;;;12.56;76.89
68145;BME280;55400;51.824;-0.196;2023-11-19T15:40:38;99583.24;;;12.47;77.27
68145;BME280;55400;51.824;-0.196;2023-11-19T15:44:38;99585.13;;;12.51;77.43
68145;BME280;55400;51.824;-0.196;2023-11-19T15:48:38;99591.24;;;12.49;76.46
68145;BME280;55400;51.824;-0.196;2023-11-19T15:52:38;99619.05;;;12.47;76.31
68145;BME280;55400;51.824;-0.196;2023-11-19T15:56:38;99619.05;;;12.49;76.31
68145;BME280;55400;51.824;-0.196;2023-11-19T16:00:38;99613.73;;;12.48;76.15
68145;BME280;55400;51.824;-0.196;2023-11-19T16:04:38;99623.03;;;12.54;76.37
68145;BME280;55400;51.824;-0.196;2023-11-19T16:08:38;99623.0;;;12.50;75.66
68145;BME280;55400;51.824;-0.196;2023-11-19T16:16:38;99628.91;;;12.42;75.78
68145;BME280;55400;51.824;-0.196;2023-11-19T16:20:38;99637.77;;;12.44;75.85
68145;BME280;55400;51.824;-0.196;2023-11-19T16:24:38;99648.53;;;12.50;75.85
68145;BME280;55400;51.824;-0.196;2023-11-19T16:28:38;99648.53;;;12.45;75.18
68145;BME280;55400;51.824;-0.196;2023-11-19T16:32:48;99643.81;;;12.48;75.39
68145;BME280;55400;51.824;-0.196;2023-11-19T16:36:38;99657.73000000001;;;12.42;75.37
68145;BME280;55400;51.824;-0.196;2023-11-19T16:40:38;99650.09;;;12.49;75.46
68145;BME280;55400;51.824;-0.196;2023-11-19T16:44:38;99650.09;;;12.46;75.29
68145;BME280;55400;51.824;-0.196;2023-11-19T16:48:06;99664.03;;;12.46;75.26
68145;BME280;55400;51.824;-0.196;2023-11-19T16:48:38;99664.03;;;12.48;75.26
68145;BME280;55400;51.824;-0.196;2023-11-19T16:54:07;99660.51999999999;;;12.39;74.97
68145;BME280;55400;51.824;-0.196;2023-11-19T16:56:38;99660.51999999999;;;12.40;74.97
68145;BME280;55400;51.824;-0.196;2023-11-19T17:00:38;99669.32;;;12.37;74.77
68145;BME280;55400;51.824;-0.196;2023-11-19T17:04:38;99682.09000000001;;;12.32;75.17
68145;BME280;55400;51.824;-0.196;2023-11-19T17:08:38;99678.86;;;12.38;75.37
68145;BME280;55400;51.824;-0.196;2023-11-19T17:12:38;99692.14;;;12.41;75.27
68145;BME280;55400;51.824;-0.196;2023-11-19T17:16:39;99690.36;;;12.35;74.79
68145;BME280;55400;51.824;-0.196;2023-11-19T17:20:38;99721.59;;;12.34;74.94
68145;BME280;55400;51.824;-0.196;2023-11-19T17:24:39;99685.53;;;12.32;75.00
68145;BME280;55400;51.824;-0.196;2023-11-19T17:28:38;99699.1;;;12.25;74.89
68145;BME280;55400;51.824;-0.196;2023-11-19T17:32:38;99698.39;;;12.27;75.15
68145;BME280;55400;51.824;-0.196;2023-11-19T17:36:39;99693.33;;;12.23;74.88
68145;BME280;55400;51.824;-0.196;2023-11-19T17:40:39;99711.7;;;12.21;74.92
68145;BME280;55400;51.824;-0.196;2023-11-19T17:44:39;99720.59000000001;;;12.12;75.17
68145;BME280;55400;51.824;-0.196;2023-11-19T17:48:39;99720.59000000001;;;12.10;75.44
68145;BME280;55400;51.824;-0.196;2023-11-19T17:52:39;99717.14;;;12.11;75.82
68145;BME280;55400;51.824;-0.196;2023-11-19T17:56:39;99732.34;;;12.16;76.08
68145;BME280;55400;51.824;-0.196;2023-11-19T18:00:39;99748.41;;;12.13;75.76
68145;BME280;55400;51.824;-0.196;2023-11-19T18:04:39;99743.74;;;12.17;75.36
68145;BME280;55400;51.824;-0.196;2023-11-19T18:08:39;99743.74;;;12.03;75.26
68145;BME280;55400;51.824;-0.196;2023-11-19T18:12:39;99745.17;;;12.12;76.21
68145;BME280;55400;51.824;-0.196;2023-11-19T18:16:39;99767.67;;;12.06;76.03
68145;BME280;55400;51.824;-0.196;2023-11-19T18:20:39;99765.09999999999;;;12.13;76.20
68145;BME280;55400;51.824;-0.196;2023-11-19T18:24:39;99780.52;;;12.20;76.19
68145;BME280;55400;51.824;-0.196;2023-11-19T18:28:39;99807.23000000001;;;12.10;76.03
68145;BME280;55400;51.824;-0.196;2023-11-19T18:32:39;99786.99;;;12.11;76.03
68145;BME280;55400;51.824;-0.196;2023-11-19T18:36:39;99786.99;;;12.07;76.19
68145;BME280;55400;51.824;-0.196;2023-11-19T18:40:39;99790.59;;;12.06;76.24
68145;BME280;55400;51.824;-0.196;2023-11-19T18:44:39;99798.82;;;11.97;76.07
68145;BME280;55400;51.824;-0.196;2023-11-19T18:48:39;99798.82;;;11.82;76.74
68145;BME280;55400;51.824;-0.196;2023-11-19T18:52:39;99797.92;;;11.85;77.15
68145;BME280;55400;51.824;-0.196;2023-11-19T18:56:39;99791.68;;;11.81;77.08
68145;BME280;55400;51.824;-0.196;2023-11-19T19:00:39;99791.68;;;11.82;76.77
68145;BME280;55400;51.824;-0.196;2023-11-19T19:04:39;99800.48000000001;;;11.81;76.88
68145;BME280;55400;51.824;-0.196;2023-11-19T19:08:39;99793.92;;;11.75;76.52
68145;BME280;55400;51.824;-0.196;2023-11-19T19:12:39;99796.38;;;11.73;76.38
68145;BME280;55400;51.824;-0.196;2023-11-19T19:16:39;99800.72;;;11.70;76.49
68145;BME280;55400;51.824;-0.196;2023-11-19T19:20:39;99800.72;;;11.74;76.49
68145;BME280;55400;51.824;-0.196;2023-11-19T19:28:39;99825.16;;;11.69;76.02
68145;BME280;55400;51.824;-0.196;2023-11-19T19:32:39;99830.68;;;11.61;76.26
68145;BME280;55400;51.824;-0.196;2023-11-19T19:36:39;99830.68;;;11.66;76.65
68145;BME280;55400;51.824;-0.196;2023-11-19T19:40:39;99827.98;;;11.65;76.76
68145;BME280;55400;51.824;-0.196;2023-11-19T19:44:39;99833.54000000001;;;11.67;76.61
68145;BME280;55400;51.824;-0.196;2023-11-19T19:48:39;99833.54000000001;;;11.73;76.67
68145;BME280;55400;51.824;-0.196;2023-11-19T19:52:39;99821.74;;;11.72;76.36
68145;BME280;55400;51.824;-0.196;2023-11-19T19:56:39;99822.43999999999;;;11.66;76.36
68145;BME280;55400;51.824;-0.196;2023-11-19T20:00:39;99820.34999999999;;;11.68;76.30
68145;BME280;55400;51.824;-0.196;2023-11-19T20:04:39;99820.34999999999;;;11.67;76.30
68145;BME280;55400;51.824;-0.196;2023-11-19T20:08:39;99821.7;;;11.51;76.30
68145;BME280;55400;51.824;-0.196;2023-11-19T20:16:39;99827.99;;;11.47;77.24
68145;BME280;55400;51.824;-0.196;2023-11-19T20:24:39;99827.08;;;11.45;77.07
68145;BME280;55400;51.824;-0.196;2023-11-19T20:28:39;99847.11;;;11.44;77.27
68145;BME280;55400;51.824;-0.196;2023-11-19T20:32:39;99846.8;;;11.53;77.46
68145;BME280;55400;51.824;-0.196;2023-11-19T20:36:39;99846.8;;;11.49;76.94
68145;BME280;55400;51.824;-0.196;2023-11-19T20:40:39;99842.53;;;11.43;77.14
68145;BME280;55400;51.824;-0.196;2023-11-19T20:44:39;99847.14;;;11.45;77.56
68145;BME280;55400;51.824;-0.196;2023-11-19T20:48:39;99847.14;;;11.48;77.50
68145;BME280;55400;51.824;-0.196;2023-11-19T20:52:39;99858.92;;;11.42;77.32
68145;BME280;55400;51.824;-0.196;2023-11-19T20:56:39;99858.92;;;11.50;77.51
68145;BME280;55400;51.824;-0.196;2023-11-19T21:00:39;99872.92;;;11.47;77.44
68145;BME280;55400;51.824;-0.196;2023-11-19T21:04:39;99878.03;;;11.43;77.18